Time;durP1;ratioP1;P1;durP2;ratioP2;P2;SDS_P1;SDS_P2;PMS_P1;PMS_P2;Temp;Humidity;BMP_temperature;BMP_pressure;BME280_temperature;BME280_humidity;BME280_pressure;Samples;Min_cycle;Max_cycle;Signal;HPM_P1;HPM_P2
2021/05/26 00:00:37;;;;;;;13.00;7.50;;;;;;;;;;5044531;28;20051;-53
2021/05/26 00:03:03;;;;;;;7.53;4.03;;;;;;;;;;5045259;28;20017;-53
2021/05/26 00:05:31;;;;;;;3.63;1.80;;;;;;;;;;5044400;28;20504;-55
2021/05/26 00:07:59;;;;;;;16.10;5.65;;;;;;;;;;5026335;28;20358;-53
2021/05/26 00:10:26;;;;;;;15.80;8.98;;;;;;;;;;5044212;28;20059;-53
2021/05/26 00:12:54;;;;;;;11.90;6.57;;;;;;;;;;5044075;28;20025;-55
2021/05/26 00:15:20;;;;;;;5.70;4.15;;;;;;;;;;5044081;28;20028;-53
2021/05/26 00:17:46;;;;;;;6.45;3.78;;;;;;;;;;5044231;28;20052;-53
2021/05/26 00:20:12;;;;;;;8.35;5.35;;;;;;;;;;5045116;28;20025;-52
2021/05/26 00:22:38;;;;;;;6.70;3.25;;;;;;;;;;5043912;28;20028;-53
2021/05/26 00:25:05;;;;;;;2.85;2.10;;;;;;;;;;5043836;28;20013;-54
2021/05/26 00:27:31;;;;;;;15.95;11.30;;;;;;;;;;5044084;28;20037;-55
2021/05/26 00:29:57;;;;;;;72.35;48.35;;;;;;;;;;5043659;28;20078;-55
2021/05/26 00:32:23;;;;;;;49.78;31.42;;;;;;;;;;5043825;28;20105;-55
2021/05/26 00:34:49;;;;;;;17.45;10.05;;;;;;;;;;5042471;28;20032;-54
2021/05/26 00:37:16;;;;;;;17.27;11.23;;;;;;;;;;5043708;28;20036;-54
2021/05/26 00:39:43;;;;;;;10.82;7.05;;;;;;;;;;5044632;28;20021;-53
2021/05/26 00:42:09;;;;;;;10.35;6.55;;;;;;;;;;5043796;28;20029;-53
2021/05/26 00:44:35;;;;;;;24.83;14.75;;;;;;;;;;5043651;28;20030;-53
2021/05/26 00:47:03;;;;;;;15.70;8.40;;;;;;;;;;5043341;28;20119;-53
2021/05/26 00:49:29;;;;;;;9.27;5.40;;;;;;;;;;5043424;28;20928;-53
2021/05/26 00:51:56;;;;;;;14.15;7.30;;;;;;;;;;5043421;28;20045;-53
2021/05/26 00:54:22;;;;;;;16.83;6.95;;;;;;;;;;5043330;28;20512;-54
2021/05/26 00:56:52;;;;;;;21.90;9.68;;;;;;;;;;5043221;28;20017;-54
2021/05/26 00:59:18;;;;;;;17.83;6.68;;;;;;;;;;5042958;28;20036;-54
2021/05/26 01:01:44;;;;;;;19.27;10.05;;;;;;;;;;5043326;28;20105;-54
2021/05/26 01:04:10;;;;;;;23.08;12.80;;;;;;;;;;5043078;28;20032;-54
2021/05/26 01:06:36;;;;;;;20.17;8.77;;;;;;;;;;5043061;28;20507;-54
2021/05/26 01:09:07;;;;;;;30.20;14.65;;;;;;;;;;5043541;28;20377;-54
2021/05/26 01:11:33;;;;;;;24.20;11.45;;;;;;;;;;5049175;28;20032;-55
2021/05/26 01:13:59;;;;;;;8.82;4.22;;;;;;;;;;5053668;28;20116;-55
2021/05/26 01:16:25;;;;;;;12.25;5.93;;;;;;;;;;5053658;28;20021;-54
2021/05/26 01:18:51;;;;;;;19.45;9.23;;;;;;;;;;5053705;28;20103;-54
2021/05/26 01:21:17;;;;;;;7.82;4.03;;;;;;;;;;5053571;28;20025;-55
2021/05/26 01:23:44;;;;;;;12.10;6.35;;;;;;;;;;5053565;28;20029;-54
2021/05/26 01:26:13;;;;;;;14.57;8.68;;;;;;;;;;5053526;28;20017;-54
2021/05/26 01:28:39;;;;;;;8.05;4.25;;;;;;;;;;5053589;28;20033;-54
2021/05/26 01:31:06;;;;;;;7.13;3.63;;;;;;;;;;5053412;28;20092;-54
2021/05/26 01:33:32;;;;;;;12.23;5.47;;;;;;;;;;5053445;28;20033;-54
2021/05/26 01:35:58;;;;;;;9.45;4.30;;;;;;;;;;5053664;28;20021;-55
2021/05/26 01:38:25;;;;;;;8.10;3.40;;;;;;;;;;5053451;28;20048;-54
2021/05/26 01:40:56;;;;;;;5.82;2.63;;;;;;;;;;5053564;28;20079;-54
2021/05/26 01:43:23;;;;;;;3.87;2.17;;;;;;;;;;5053420;28;20052;-54
2021/05/26 01:45:49;;;;;;;7.07;3.20;;;;;;;;;;5053306;28;20282;-54
2021/05/26 01:48:15;;;;;;;6.13;3.17;;;;;;;;;;5053133;28;20045;-54
2021/05/26 01:50:42;;;;;;;5.93;2.70;;;;;;;;;;5053210;28;20044;-54
2021/05/26 01:53:09;;;;;;;11.95;7.03;;;;;;;;;;5053395;28;20032;-54
2021/05/26 01:55:36;;;;;;;14.95;8.15;;;;;;;;;;5053338;28;20036;-55
2021/05/26 01:58:03;;;;;;;8.20;5.15;;;;;;;;;;5053257;28;20033;-55
2021/05/26 02:00:29;;;;;;;6.30;3.72;;;;;;;;;;5053055;28;20021;-54
2021/05/26 02:02:55;;;;;;;10.95;5.32;;;;;;;;;;5053364;28;20426;-55
2021/05/26 02:05:21;;;;;;;6.47;3.88;;;;;;;;;;5053261;28;20035;-54
2021/05/26 02:07:47;;;;;;;3.05;1.88;;;;;;;;;;5053252;28;20033;-56
2021/05/26 02:12:19;;;;;;;2.88;2.00;;;;;;;;;;5053356;28;20057;-54
2021/05/26 02:13:04;;;;;;;4.07;2.40;;;;;;;;;;5053358;28;20124;-54
2021/05/26 02:15:30;;;;;;;3.78;1.45;;;;;;;;;;5057069;28;20025;-54
2021/05/26 02:17:57;;;;;;;4.53;1.63;;;;;;;;;;5057121;28;20021;-54
2021/05/26 02:20:23;;;;;;;3.30;1.60;;;;;;;;;;5056875;28;20104;-54
2021/05/26 02:22:49;;;;;;;4.68;1.48;;;;;;;;;;5057092;28;20033;-54
2021/05/26 02:25:15;;;;;;;4.05;1.80;;;;;;;;;;5056925;28;20023;-54
2021/05/26 02:27:41;;;;;;;4.07;1.67;;;;;;;;;;5056772;28;20032;-55
2021/05/26 02:30:09;;;;;;;6.25;1.45;;;;;;;;;;5057312;28;20104;-54
2021/05/26 02:32:36;;;;;;;5.35;1.83;;;;;;;;;;5056931;28;20021;-54
2021/05/26 02:35:02;;;;;;;2.85;1.20;;;;;;;;;;5056846;28;20021;-54
2021/05/26 02:37:30;;;;;;;3.78;1.45;;;;;;;;;;5056779;28;20047;-53
2021/05/26 02:39:56;;;;;;;3.00;1.30;;;;;;;;;;5057175;28;20392;-53
2021/05/26 02:42:22;;;;;;;4.97;1.33;;;;;;;;;;5056594;28;20025;-53
2021/05/26 02:44:48;;;;;;;2.30;1.30;;;;;;;;;;5056605;28;20473;-54
2021/05/26 02:47:14;;;;;;;4.35;1.40;;;;;;;;;;5056689;28;20025;-54
2021/05/26 02:49:40;;;;;;;5.13;1.48;;;;;;;;;;5056584;28;20048;-53
2021/05/26 02:52:07;;;;;;;3.42;1.40;;;;;;;;;;5056490;28;20117;-54
2021/05/26 02:54:33;;;;;;;5.68;1.35;;;;;;;;;;5056673;28;20067;-54
2021/05/26 02:56:59;;;;;;;11.15;1.40;;;;;;;;;;5056538;28;20025;-54
2021/05/26 02:59:25;;;;;;;4.82;1.30;;;;;;;;;;5056166;28;20469;-54
2021/05/26 03:01:51;;;;;;;5.97;1.50;;;;;;;;;;5056668;28;20029;-54
2021/05/26 03:04:17;;;;;;;8.23;1.50;;;;;;;;;;5056266;28;20025;-54
2021/05/26 03:06:43;;;;;;;4.68;1.13;;;;;;;;;;5056161;28;20726;-54
2021/05/26 03:09:09;;;;;;;6.68;1.30;;;;;;;;;;5054843;28;20041;-55
2021/05/26 03:11:35;;;;;;;6.07;1.35;;;;;;;;;;5056013;28;20489;-54
2021/05/26 03:14:01;;;;;;;1.63;1.10;;;;;;;;;;5056004;28;20413;-55
2021/05/26 03:16:27;;;;;;;4.10;1.20;;;;;;;;;;5056261;28;20017;-54
2021/05/26 03:18:53;;;;;;;5.60;1.70;;;;;;;;;;5056269;28;20028;-55
2021/05/26 03:21:19;;;;;;;3.92;1.33;;;;;;;;;;5055996;28;20078;-54
2021/05/26 03:23:46;;;;;;;5.15;1.52;;;;;;;;;;5055838;28;20029;-54
2021/05/26 03:26:13;;;;;;;6.18;1.70;;;;;;;;;;5055744;28;20464;-53
2021/05/26 03:28:40;;;;;;;3.03;1.42;;;;;;;;;;5055712;28;20040;-52
2021/05/26 03:31:06;;;;;;;3.28;1.23;;;;;;;;;;5055740;28;20125;-53
2021/05/26 03:33:32;;;;;;;4.82;1.88;;;;;;;;;;5055798;28;20021;-53
2021/05/26 03:36:00;;;;;;;8.30;1.90;;;;;;;;;;5055588;28;20032;-53
2021/05/26 03:38:30;;;;;;;8.82;1.40;;;;;;;;;;5055746;28;20032;-53
2021/05/26 03:40:57;;;;;;;9.05;1.63;;;;;;;;;;5055565;28;20043;-56
2021/05/26 03:43:23;;;;;;;6.95;1.83;;;;;;;;;;5055410;28;20032;-53
2021/05/26 03:45:49;;;;;;;7.65;1.42;;;;;;;;;;5055490;28;20066;-52
2021/05/26 03:48:15;;;;;;;6.03;1.60;;;;;;;;;;5055331;28;20129;-53
2021/05/26 03:50:41;;;;;;;5.55;1.70;;;;;;;;;;5055199;28;20439;-54
2021/05/26 03:53:09;;;;;;;3.60;1.25;;;;;;;;;;5055432;28;20087;-53
2021/05/26 03:55:35;;;;;;;6.35;1.50;;;;;;;;;;5055249;28;20035;-54
2021/05/26 03:58:02;;;;;;;5.30;1.50;;;;;;;;;;5055174;28;20029;-55
2021/05/26 04:00:28;;;;;;;7.78;1.50;;;;;;;;;;5055086;28;20021;-54
2021/05/26 04:02:54;;;;;;;4.70;1.77;;;;;;;;;;5055554;28;20567;-55
2021/05/26 04:05:23;;;;;;;7.13;1.60;;;;;;;;;;5053725;28;20071;-55
2021/05/26 04:07:49;;;;;;;4.35;1.70;;;;;;;;;;5055016;28;20090;-55
2021/05/26 04:10:15;;;;;;;5.32;1.85;;;;;;;;;;5055103;28;20049;-55
2021/05/26 04:12:41;;;;;;;6.43;1.50;;;;;;;;;;5053748;28;20380;-55
2021/05/26 04:15:08;;;;;;;2.08;1.20;;;;;;;;;;5055015;28;20021;-55
2021/05/26 04:17:34;;;;;;;4.03;1.30;;;;;;;;;;5054828;28;20025;-55
2021/05/26 04:20:04;;;;;;;7.75;1.52;;;;;;;;;;5054691;28;20127;-55
2021/05/26 04:22:33;;;;;;;5.13;1.40;;;;;;;;;;5054719;28;20496;-55
2021/05/26 04:24:59;;;;;;;5.35;1.30;;;;;;;;;;5054730;28;20032;-54
2021/05/26 04:27:25;;;;;;;4.95;1.42;;;;;;;;;;5054691;28;20389;-54
2021/05/26 04:29:52;;;;;;;2.78;1.40;;;;;;;;;;5054605;28;20024;-53
2021/05/26 04:32:18;;;;;;;9.30;2.00;;;;;;;;;;5054761;28;20041;-53
2021/05/26 04:34:49;;;;;;;5.15;1.90;;;;;;;;;;5054613;28;20055;-54
2021/05/26 04:37:17;;;;;;;3.63;1.67;;;;;;;;;;5053964;28;20082;-55
2021/05/26 04:39:43;;;;;;;3.17;1.60;;;;;;;;;;5054436;28;20039;-53
2021/05/26 04:42:09;;;;;;;5.63;1.92;;;;;;;;;;5054299;28;20105;-54
2021/05/26 04:44:35;;;;;;;5.60;1.42;;;;;;;;;;5054333;28;20017;-54
2021/05/26 04:47:01;;;;;;;6.75;2.42;;;;;;;;;;5054399;28;20033;-54
2021/05/26 04:49:27;;;;;;;2.85;1.50;;;;;;;;;;5054268;28;20075;-54
2021/05/26 04:51:54;;;;;;;5.15;2.75;;;;;;;;;;5053844;28;20067;-54
2021/05/26 04:54:20;;;;;;;4.10;1.60;;;;;;;;;;5054229;28;20029;-55
2021/05/26 04:56:46;;;;;;;3.95;1.70;;;;;;;;;;5054185;28;20021;-62
2021/05/26 04:59:12;;;;;;;2.95;1.70;;;;;;;;;;5058416;28;20029;-59
2021/05/26 05:01:39;;;;;;;16.10;8.88;;;;;;;;;;5073769;28;20431;-55
2021/05/26 05:04:05;;;;;;;12.07;6.03;;;;;;;;;;5070799;28;20021;-54
2021/05/26 05:06:36;;;;;;;15.43;7.88;;;;;;;;;;5073272;28;20031;-55
2021/05/26 05:09:03;;;;;;;20.38;10.82;;;;;;;;;;5073344;28;20508;-54
2021/05/26 05:11:30;;;;;;;9.05;4.18;;;;;;;;;;5073697;28;20020;-53
2021/05/26 05:13:59;;;;;;;8.00;3.75;;;;;;;;;;5073677;28;20085;-53
2021/05/26 05:16:26;;;;;;;11.38;3.80;;;;;;;;;;5074018;28;20465;-54
2021/05/26 05:18:52;;;;;;;6.80;3.53;;;;;;;;;;5073539;28;20430;-53
2021/05/26 05:21:18;;;;;;;6.72;3.38;;;;;;;;;;5073456;28;20025;-53
2021/05/26 05:23:44;;;;;;;8.02;3.35;;;;;;;;;;5073743;28;20055;-53
2021/05/26 05:26:11;;;;;;;8.40;3.58;;;;;;;;;;5073494;28;20025;-53
2021/05/26 05:28:37;;;;;;;9.13;3.67;;;;;;;;;;5073456;28;20043;-54
2021/05/26 05:31:03;;;;;;;7.30;3.67;;;;;;;;;;5073562;28;20111;-53
2021/05/26 05:33:29;;;;;;;8.50;3.92;;;;;;;;;;5073429;28;20074;-53
2021/05/26 05:35:56;;;;;;;7.32;3.97;;;;;;;;;;5073382;28;20480;-54
2021/05/26 05:38:22;;;;;;;7.78;5.00;;;;;;;;;;5073249;28;20031;-53
2021/05/26 05:40:48;;;;;;;11.35;5.00;;;;;;;;;;5073494;28;20043;-53
2021/05/26 05:43:15;;;;;;;11.55;6.18;;;;;;;;;;5073268;28;20020;-53
2021/05/26 05:45:41;;;;;;;13.68;7.22;;;;;;;;;;5073415;28;20029;-53
2021/05/26 05:48:07;;;;;;;16.45;7.30;;;;;;;;;;5073441;28;20043;-53
2021/05/26 05:50:33;;;;;;;8.55;3.65;;;;;;;;;;5073000;28;20032;-53
2021/05/26 05:52:59;;;;;;;3.50;1.60;;;;;;;;;;5073139;28;20028;-56
2021/05/26 05:55:26;;;;;;;10.50;4.88;;;;;;;;;;5073199;28;20096;-54
2021/05/26 05:57:53;;;;;;;10.63;6.53;;;;;;;;;;5073249;28;20060;-55
2021/05/26 06:00:20;;;;;;;6.68;3.78;;;;;;;;;;5073068;28;20029;-54
2021/05/26 06:02:46;;;;;;;3.47;1.98;;;;;;;;;;5073080;28;20082;-55
2021/05/26 06:05:14;;;;;;;9.80;4.63;;;;;;;;;;5072969;28;20025;-55
2021/05/26 06:07:41;;;;;;;23.23;11.75;;;;;;;;;;5073055;28;20025;-54
2021/05/26 06:10:07;;;;;;;39.67;23.73;;;;;;;;;;5073068;28;20100;-54
2021/05/26 06:12:33;;;;;;;27.38;16.67;;;;;;;;;;5072970;28;20028;-55
2021/05/26 06:14:59;;;;;;;13.65;8.35;;;;;;;;;;5073090;28;20021;-54
2021/05/26 06:17:25;;;;;;;9.02;5.63;;;;;;;;;;5072957;28;20027;-53
2021/05/26 06:19:51;;;;;;;16.02;7.13;;;;;;;;;;5072686;28;20033;-53
2021/05/26 06:22:17;;;;;;;63.45;36.05;;;;;;;;;;5073101;28;20022;-59
2021/05/26 06:24:44;;;;;;;63.13;34.75;;;;;;;;;;5072971;28;20473;-56
2021/05/26 06:27:10;;;;;;;40.75;20.85;;;;;;;;;;5072905;28;20119;-52
2021/05/26 06:29:36;;;;;;;45.42;25.25;;;;;;;;;;5072852;28;20032;-59
2021/05/26 06:32:02;;;;;;;29.75;14.50;;;;;;;;;;5072724;28;20028;-57
2021/05/26 06:34:28;;;;;;;17.58;7.88;;;;;;;;;;5072700;28;20025;-56
2021/05/26 06:36:54;;;;;;;25.15;12.88;;;;;;;;;;5072636;28;20020;-57
2021/05/26 06:39:21;;;;;;;16.77;9.15;;;;;;;;;;5072788;28;20073;-60
2021/05/26 06:41:47;;;;;;;36.05;22.75;;;;;;;;;;5072666;28;20056;-59
2021/05/26 06:44:13;;;;;;;61.63;39.35;;;;;;;;;;5072664;28;20032;-59
2021/05/26 06:46:40;;;;;;;43.95;28.35;;;;;;;;;;5072692;28;20029;-58
2021/05/26 06:49:06;;;;;;;45.60;28.25;;;;;;;;;;5054221;28;20495;-55
2021/05/26 06:51:32;;;;;;;42.70;26.92;;;;;;;;;;5072393;28;20040;-55
2021/05/26 06:53:58;;;;;;;50.38;24.33;;;;;;;;;;5072780;28;20096;-55
2021/05/26 06:56:24;;;;;;;55.00;22.98;;;;;;;;;;5072649;28;20046;-55
2021/05/26 06:58:52;;;;;;;34.83;16.85;;;;;;;;;;5072577;28;20052;-56
2021/05/26 07:01:18;;;;;;;6.07;3.08;;;;;;;;;;5076700;28;20074;-55
2021/05/26 07:03:44;;;;;;;58.10;27.08;;;;;;;;;;5076712;28;20048;-55
2021/05/26 07:06:10;;;;;;;11.95;4.07;;;;;;;;;;5076663;28;20608;-56
2021/05/26 07:08:36;;;;;;;15.30;7.57;;;;;;;;;;5076144;28;20056;-55
2021/05/26 07:11:02;;;;;;;12.98;5.70;;;;;;;;;;5076364;28;20013;-55
2021/05/26 07:13:28;;;;;;;23.58;7.90;;;;;;;;;;5076100;28;20059;-55
2021/05/26 07:15:55;;;;;;;25.13;10.95;;;;;;;;;;5076267;28;20430;-55
2021/05/26 07:18:22;;;;;;;23.08;10.90;;;;;;;;;;5076197;28;20025;-55
2021/05/26 07:20:48;;;;;;;10.50;5.40;;;;;;;;;;5075881;28;20047;-55
2021/05/26 07:23:16;;;;;;;8.95;4.97;;;;;;;;;;5076277;28;20029;-55
2021/05/26 07:25:42;;;;;;;14.63;8.02;;;;;;;;;;5075903;28;20029;-55
2021/05/26 07:28:09;;;;;;;9.73;5.25;;;;;;;;;;5075622;28;20295;-55
2021/05/26 07:30:35;;;;;;;8.68;3.38;;;;;;;;;;5075777;28;20114;-54
2021/05/26 07:33:03;;;;;;;7.72;4.25;;;;;;;;;;5075753;28;20036;-55
2021/05/26 07:35:30;;;;;;;10.95;6.18;;;;;;;;;;5075659;28;20017;-55
2021/05/26 07:37:56;;;;;;;12.35;6.28;;;;;;;;;;5075686;28;20384;-55
2021/05/26 07:40:22;;;;;;;10.63;4.60;;;;;;;;;;5075759;28;20417;-55
2021/05/26 07:42:48;;;;;;;7.90;4.10;;;;;;;;;;5075513;28;20024;-56
2021/05/26 07:45:14;;;;;;;14.60;5.75;;;;;;;;;;5075691;28;20078;-56
2021/05/26 07:47:40;;;;;;;11.60;6.75;;;;;;;;;;5075384;28;20028;-56
2021/05/26 07:50:07;;;;;;;7.78;4.10;;;;;;;;;;5075306;28;20495;-55
2021/05/26 07:52:33;;;;;;;13.98;8.75;;;;;;;;;;5075281;28;20105;-55
2021/05/26 07:55:00;;;;;;;44.97;26.00;;;;;;;;;;5075277;28;20025;-55
2021/05/26 07:57:26;;;;;;;9.27;5.95;;;;;;;;;;5075148;28;20016;-54
2021/05/26 07:59:52;;;;;;;14.68;6.78;;;;;;;;;;5075223;28;20028;-55
2021/05/26 08:02:19;;;;;;;6.38;3.08;;;;;;;;;;5056657;28;20482;-55
2021/05/26 08:04:45;;;;;;;6.93;3.20;;;;;;;;;;5057201;28;20025;-54
2021/05/26 08:07:11;;;;;;;8.43;4.20;;;;;;;;;;5075002;28;20025;-55
2021/05/26 08:09:37;;;;;;;9.00;4.40;;;;;;;;;;5074953;28;20032;-55
2021/05/26 08:12:04;;;;;;;5.35;1.80;;;;;;;;;;5073969;28;20031;-55
2021/05/26 08:14:31;;;;;;;10.05;6.07;;;;;;;;;;5074881;28;20074;-55
2021/05/26 08:17:00;;;;;;;12.30;5.95;;;;;;;;;;5056431;28;20526;-55
2021/05/26 08:19:26;;;;;;;2.90;1.88;;;;;;;;;;5074846;28;20028;-55
2021/05/26 08:21:53;;;;;;;8.05;4.43;;;;;;;;;;5074889;28;20021;-54
2021/05/26 08:24:19;;;;;;;7.10;2.80;;;;;;;;;;5074824;28;20037;-55
2021/05/26 08:26:45;;;;;;;11.68;5.45;;;;;;;;;;5074695;28;20081;-54
2021/05/26 08:29:11;;;;;;;5.82;1.25;;;;;;;;;;5074430;28;20044;-54
2021/05/26 08:31:39;;;;;;;6.45;2.85;;;;;;;;;;5074652;28;20491;-54
2021/05/26 08:34:06;;;;;;;5.13;3.08;;;;;;;;;;5056282;28;20035;-55
2021/05/26 08:36:32;;;;;;;3.30;1.40;;;;;;;;;;5074585;28;20032;-55
2021/05/26 08:38:58;;;;;;;14.40;6.78;;;;;;;;;;5074342;28;20036;-56
2021/05/26 08:41:24;;;;;;;11.38;6.20;;;;;;;;;;5074521;28;20023;-56
2021/05/26 08:43:51;;;;;;;12.32;5.68;;;;;;;;;;5074258;28;20025;-55
2021/05/26 08:46:17;;;;;;;13.85;8.85;;;;;;;;;;5074569;28;20021;-56
2021/05/26 08:48:45;;;;;;;9.40;5.97;;;;;;;;;;5074257;28;20035;-55
2021/05/26 08:51:12;;;;;;;9.20;5.55;;;;;;;;;;5073913;28;20044;-55
2021/05/26 08:53:38;;;;;;;3.38;0.90;;;;;;;;;;5074195;28;20063;-55
2021/05/26 08:56:05;;;;;;;5.18;2.15;;;;;;;;;;5074141;28;20038;-55
2021/05/26 08:58:37;;;;;;;13.40;7.65;;;;;;;;;;5074064;28;20025;-55
2021/05/26 09:01:03;;;;;;;10.10;3.97;;;;;;;;;;5073900;28;20495;-55
2021/05/26 09:03:32;;;;;;;11.75;5.63;;;;;;;;;;5074335;28;20051;-56
2021/05/26 09:05:58;;;;;;;6.85;2.90;;;;;;;;;;5074029;28;20055;-55
2021/05/26 09:08:26;;;;;;;11.23;7.30;;;;;;;;;;5073852;28;20068;-55
2021/05/26 09:11:18;;;;;;;2.60;1.60;;;;;;;;;;5074397;28;20077;-56
2021/05/26 09:13:44;;;;;;;5.88;2.78;;;;;;;;;;5070788;28;20037;-55
2021/05/26 09:16:27;;;;;;;11.25;4.43;;;;;;;;;;5074095;28;20545;-55
2021/05/26 09:19:00;;;;;;;11.68;6.57;;;;;;;;;;5055719;28;20531;-56
2021/05/26 09:21:42;;;;;;;16.88;9.93;;;;;;;;;;5073833;28;20063;-55
2021/05/26 09:24:20;;;;;;;14.48;7.95;;;;;;;;;;5073641;28;20112;-55
2021/05/26 09:26:49;;;;;;;7.32;4.05;;;;;;;;;;5073646;28;20039;-55
2021/05/26 09:29:15;;;;;;;4.30;2.30;;;;;;;;;;5073564;28;20542;-55
2021/05/26 09:31:41;;;;;;;6.57;3.92;;;;;;;;;;5073542;28;20028;-55
2021/05/26 09:34:08;;;;;;;2.63;1.38;;;;;;;;;;5073625;28;20104;-57
2021/05/26 09:36:34;;;;;;;3.85;2.35;;;;;;;;;;5073458;28;20476;-56
2021/05/26 09:39:03;;;;;;;10.85;4.57;;;;;;;;;;5073648;28;20075;-56
2021/05/26 09:41:29;;;;;;;7.30;2.33;;;;;;;;;;5073753;28;20074;-56
2021/05/26 09:43:59;;;;;;;3.67;1.60;;;;;;;;;;5073481;28;20033;-56
2021/05/26 09:46:25;;;;;;;4.70;1.60;;;;;;;;;;5073389;28;20111;-56
2021/05/26 09:49:27;;;;;;;5.40;3.28;;;;;;;;;;5073351;28;20185;-56
2021/05/26 09:51:57;;;;;;;6.30;2.80;;;;;;;;;;5011345;28;20054;-56
2021/05/26 09:54:26;;;;;;;7.53;4.85;;;;;;;;;;5011533;28;20034;-56
2021/05/26 09:56:56;;;;;;;3.67;2.13;;;;;;;;;;5011418;28;20026;-56
2021/05/26 09:59:23;;;;;;;6.80;3.33;;;;;;;;;;5011077;28;20445;-56
2021/05/26 10:01:58;;;;;;;6.65;2.03;;;;;;;;;;5004837;28;20030;-57
2021/05/26 10:04:25;;;;;;;6.70;2.95;;;;;;;;;;5000798;28;20088;-55
2021/05/26 10:06:53;;;;;;;23.55;11.77;;;;;;;;;;5001790;28;20118;-54
2021/05/26 10:09:21;;;;;;;3.05;1.52;;;;;;;;;;5002042;28;20037;-54
2021/05/26 10:11:48;;;;;;;25.17;17.45;;;;;;;;;;4999560;28;20022;-56
2021/05/26 10:14:15;;;;;;;4.78;2.72;;;;;;;;;;5001770;28;20034;-56
2021/05/26 10:16:43;;;;;;;19.63;11.80;;;;;;;;;;5000109;28;20042;-56
2021/05/26 10:19:13;;;;;;;11.57;7.50;;;;;;;;;;5000591;28;20034;-54
2021/05/26 10:21:40;;;;;;;8.13;3.20;;;;;;;;;;5001479;28;20478;-60
2021/05/26 10:24:07;;;;;;;7.38;2.17;;;;;;;;;;5000880;28;20463;-58
2021/05/26 10:27:01;;;;;;;24.95;16.38;;;;;;;;;;5038996;28;20029;-58
2021/05/26 10:29:31;;;;;;;29.90;17.42;;;;;;;;;;5069738;28;20020;-57
2021/05/26 10:32:07;;;;;;;7.07;4.32;;;;;;;;;;5054701;28;20392;-57
2021/05/26 10:34:46;;;;;;;24.48;11.27;;;;;;;;;;5074126;28;20031;-55
2021/05/26 10:37:13;;;;;;;18.30;10.05;;;;;;;;;;5076344;28;20016;-56
2021/05/26 10:39:40;;;;;;;3.92;2.33;;;;;;;;;;5076550;28;20021;-56
2021/05/26 10:42:24;;;;;;;13.05;8.07;;;;;;;;;;5076652;28;20020;-56
2021/05/26 10:44:56;;;;;;;38.63;25.70;;;;;;;;;;5076496;28;20025;-57
2021/05/26 10:47:37;;;;;;;20.92;10.73;;;;;;;;;;5076201;28;20094;-66
2021/05/26 10:50:16;;;;;;;2.30;1.08;;;;;;;;;;5076386;28;20028;-60
2021/05/26 10:52:58;;;;;;;19.33;13.02;;;;;;;;;;5076356;28;20133;-57
2021/05/26 10:55:36;;;;;;;44.95;25.95;;;;;;;;;;5076375;28;20020;-55
2021/05/26 10:58:11;;;;;;;12.48;4.88;;;;;;;;;;5076192;28;20039;-56
2021/05/26 11:00:38;;;;;;;6.95;3.17;;;;;;;;;;5076156;28;20468;-56
2021/05/26 11:03:23;;;;;;;9.88;4.60;;;;;;;;;;5076345;28;20029;-58
2021/05/26 11:05:49;;;;;;;31.48;17.90;;;;;;;;;;5076061;28;20067;-57
2021/05/26 11:08:45;;;;;;;7.97;4.97;;;;;;;;;;5076156;28;20024;-56
2021/05/26 11:11:29;;;;;;;23.00;13.85;;;;;;;;;;5076138;28;20500;-57
2021/05/26 11:14:04;;;;;;;8.43;4.13;;;;;;;;;;5076237;28;20033;-59
2021/05/26 11:16:55;;;;;;;3.70;1.88;;;;;;;;;;5076108;28;20043;-56
2021/05/26 11:19:24;;;;;;;1.98;0.90;;;;;;;;;;5076189;28;20097;-57
2021/05/26 11:21:54;;;;;;;19.40;12.63;;;;;;;;;;5075678;28;20024;-57
2021/05/26 11:24:20;;;;;;;28.27;14.75;;;;;;;;;;5076114;28;20102;-55
2021/05/26 11:26:47;;;;;;;5.88;3.40;;;;;;;;;;5076001;28;20031;-55
2021/05/26 11:29:13;;;;;;;3.70;2.35;;;;;;;;;;5075457;28;20072;-58
2021/05/26 11:31:39;;;;;;;5.15;2.55;;;;;;;;;;5075733;28;20031;-58
2021/05/26 11:34:08;;;;;;;3.20;1.10;;;;;;;;;;5075881;28;20020;-51
2021/05/26 11:36:47;;;;;;;2.10;1.00;;;;;;;;;;5075867;28;20032;-54
2021/05/26 11:39:27;;;;;;;4.35;1.88;;;;;;;;;;5075703;28;20028;-55
2021/05/26 11:42:07;;;;;;;4.35;2.38;;;;;;;;;;5075413;28;20381;-52
2021/05/26 11:44:36;;;;;;;5.57;1.48;;;;;;;;;;5075075;28;20035;-52
2021/05/26 11:47:05;;;;;;;8.00;1.70;;;;;;;;;;5071276;28;20020;-51
2021/05/26 11:49:32;;;;;;;16.13;8.63;;;;;;;;;;5074435;28;20025;-51
2021/05/26 11:52:07;;;;;;;24.83;14.05;;;;;;;;;;5053135;28;20036;-53
2021/05/26 11:54:35;;;;;;;6.45;3.88;;;;;;;;;;5074016;28;20085;-52
2021/05/26 11:57:04;;;;;;;21.17;10.77;;;;;;;;;;5074009;28;20035;-50
2021/05/26 11:59:31;;;;;;;9.82;4.15;;;;;;;;;;5074014;28;20017;-54
2021/05/26 12:01:58;;;;;;;2.28;0.60;;;;;;;;;;5071747;28;20257;-53
2021/05/26 12:04:27;;;;;;;4.30;1.73;;;;;;;;;;5074782;28;20017;-55
2021/05/26 12:06:56;;;;;;;2.35;1.42;;;;;;;;;;5074927;28;20020;-55
2021/05/26 12:09:29;;;;;;;4.22;3.22;;;;;;;;;;5074754;28;20459;-54
2021/05/26 12:11:55;;;;;;;6.28;2.72;;;;;;;;;;5074970;28;20021;-53
2021/05/26 12:14:32;;;;;;;3.13;1.17;;;;;;;;;;5075032;28;20106;-55
2021/05/26 12:17:01;;;;;;;9.27;6.07;;;;;;;;;;5074965;28;20024;-53
2021/05/26 12:19:33;;;;;;;6.43;2.63;;;;;;;;;;5074816;28;20020;-55
2021/05/26 12:22:10;;;;;;;18.70;8.93;;;;;;;;;;5074520;28;20082;-56
2021/05/26 12:24:55;;;;;;;121.35;80.75;;;;;;;;;;5074628;28;20060;-52
2021/05/26 12:27:35;;;;;;;63.30;43.85;;;;;;;;;;5074779;28;20028;-54
2021/05/26 12:30:15;;;;;;;100.68;66.22;;;;;;;;;;5074562;28;20111;-54
2021/05/26 12:32:42;;;;;;;3.83;1.87;;;;;;;;;;5074396;28;20031;-53
2021/05/26 12:35:15;;;;;;;9.23;5.63;;;;;;;;;;5074420;28;20382;-51
2021/05/26 12:37:42;;;;;;;75.50;49.33;;;;;;;;;;5074493;28;20028;-52
2021/05/26 12:40:08;;;;;;;24.45;16.10;;;;;;;;;;5074432;28;20021;-53
2021/05/26 12:42:41;;;;;;;78.03;50.75;;;;;;;;;;5056559;28;20025;-54
2021/05/26 12:45:24;;;;;;;26.60;16.70;;;;;;;;;;5074118;28;20087;-54
2021/05/26 12:47:50;;;;;;;8.82;5.30;;;;;;;;;;5073977;28;20484;-53
2021/05/26 12:50:18;;;;;;;4.30;1.48;;;;;;;;;;5073967;28;20037;-53
2021/05/26 12:52:45;;;;;;;1.27;0.65;;;;;;;;;;5074148;28;20514;-55
2021/05/26 12:55:12;;;;;;;9.48;5.53;;;;;;;;;;5074145;28;20373;-54
2021/05/26 12:57:41;;;;;;;22.42;13.30;;;;;;;;;;5073463;28;20024;-54
2021/05/26 13:00:09;;;;;;;24.52;12.70;;;;;;;;;;5073692;28;20070;-54
2021/05/26 13:02:37;;;;;;;22.08;2.55;;;;;;;;;;5073979;28;20447;-54
2021/05/26 13:05:04;;;;;;;9.23;4.00;;;;;;;;;;5056154;28;20051;-55
2021/05/26 13:07:33;;;;;;;8.43;4.03;;;;;;;;;;5073674;28;20024;-51
2021/05/26 13:10:14;;;;;;;29.27;9.52;;;;;;;;;;5073722;28;20032;-53
2021/05/26 13:12:42;;;;;;;5.57;3.20;;;;;;;;;;5073586;28;20139;-50
2021/05/26 13:15:29;;;;;;;3.03;1.20;;;;;;;;;;5055996;28;20036;-51
2021/05/26 13:17:56;;;;;;;34.15;15.98;;;;;;;;;;5073633;28;20625;-51
2021/05/26 13:20:29;;;;;;;29.42;16.63;;;;;;;;;;5073788;28;20039;-51
2021/05/26 13:22:56;;;;;;;87.80;52.78;;;;;;;;;;5073398;28;20381;-49
2021/05/26 13:25:22;;;;;;;87.88;47.03;;;;;;;;;;5073526;28;20036;-50
2021/05/26 13:27:52;;;;;;;64.68;32.95;;;;;;;;;;5073532;28;20036;-49
2021/05/26 13:30:19;;;;;;;21.48;12.82;;;;;;;;;;5073644;28;20036;-51
2021/05/26 13:32:45;;;;;;;14.23;9.52;;;;;;;;;;5073559;28;20048;-49
2021/05/26 13:35:12;;;;;;;64.95;35.33;;;;;;;;;;5073178;28;20028;-60
2021/05/26 13:37:38;;;;;;;71.03;40.03;;;;;;;;;;5073120;28;20020;-58
2021/05/26 13:40:05;;;;;;;14.52;8.77;;;;;;;;;;5073299;28;20029;-56
2021/05/26 13:42:31;;;;;;;12.43;5.15;;;;;;;;;;5073479;28;20496;-54
2021/05/26 13:44:57;;;;;;;5.57;3.83;;;;;;;;;;5073195;28;20124;-56
2021/05/26 13:47:23;;;;;;;5.10;2.75;;;;;;;;;;5073276;28;20488;-56
2021/05/26 13:49:49;;;;;;;7.68;2.53;;;;;;;;;;5073502;28;20028;-56
2021/05/26 13:52:15;;;;;;;7.82;3.42;;;;;;;;;;5071919;28;20066;-54
2021/05/26 13:54:42;;;;;;;12.13;7.05;;;;;;;;;;5072755;28;20024;-56
2021/05/26 13:57:08;;;;;;;6.28;3.25;;;;;;;;;;5073320;28;20388;-53
2021/05/26 13:59:37;;;;;;;6.55;1.60;;;;;;;;;;5073445;28;20052;-56
2021/05/26 14:02:03;;;;;;;7.47;3.88;;;;;;;;;;5053375;28;20575;-49
2021/05/26 14:04:29;;;;;;;6.43;2.45;;;;;;;;;;5053395;28;20036;-53
2021/05/26 14:06:56;;;;;;;32.38;14.57;;;;;;;;;;5067332;28;20460;-55
2021/05/26 14:09:22;;;;;;;36.20;21.20;;;;;;;;;;5073685;28;20044;-49
2021/05/26 14:11:49;;;;;;;85.72;55.47;;;;;;;;;;5077440;28;20345;-49
2021/05/26 14:14:15;;;;;;;19.30;12.85;;;;;;;;;;5077357;28;20074;-49
2021/05/26 14:16:41;;;;;;;18.52;12.35;;;;;;;;;;5077178;28;20070;-49
2021/05/26 14:19:07;;;;;;;1.58;1.10;;;;;;;;;;5076085;28;20052;-48
2021/05/26 14:21:33;;;;;;;23.35;12.40;;;;;;;;;;5072741;28;20036;-55
2021/05/26 14:24:02;;;;;;;8.25;5.45;;;;;;;;;;5075309;28;20033;-57
2021/05/26 14:26:28;;;;;;;19.92;13.05;;;;;;;;;;5075602;28;20023;-57
2021/05/26 14:28:54;;;;;;;4.38;1.98;;;;;;;;;;5076555;28;20036;-57
2021/05/26 14:31:20;;;;;;;3.88;1.73;;;;;;;;;;5076886;28;20421;-57
2021/05/26 14:33:46;;;;;;;3.78;1.63;;;;;;;;;;5076670;28;20376;-57
2021/05/26 14:36:15;;;;;;;2.72;1.40;;;;;;;;;;5076839;28;20048;-56
2021/05/26 14:39:05;;;;;;;3.88;1.23;;;;;;;;;;5059277;28;20056;-56
2021/05/26 14:41:29;;;;;;;7.13;0.73;;;;;;;;;;5076022;28;20119;-55